Gillette, WY

12:45 AM MDT on July 13, 2014 (GMT -0600)
Gillette-Campbell County (KGCC) Elev 4364 ft | 44.34 °N, 105.54 °W | Change Station

Current weather conditions updated 52 minutes ago

Partly Cloudy
Partly Cloudy
56 °F
Feels Like 56 °F
N
6
Wind Variable Wind from SSW

Today is forecast to be nearly the same temperature as yesterday.

Today
High -- | Low -- °F
--% Chance of Precip.
Yesterday
High -- | Low -- °F
Precip. -- in
5:30 AM 8:46 PM
Full, 99% visible
Pressure 30.17 in
Visibility 10.0 miles
Clouds Few 7500 ft
Dew Point 49 °F
Humidity 77%
Rainfall 0.00 in
Snow Depth Not available.
UV 0 out of 12
Pollen 4.50 out of 12
Air Quality Not available.
Flu Activity Sporadic
METAR KGCC 130553Z AUTO 20005KT 10SM FEW075 13/09 A3028 RMK AO2 SLP214 T01330094 10283 20133 51008

More Conditions Fewer Conditions

Pressure 30.17 in
Visibility 10.0 miles
Clouds Few 7500 ft
Dew Point 49 °F
Humidity 77%
Rainfall 0.00 in
Snow Depth Not available.
UV 0 out of 12
Pollen 4.50 out of 12
Air Quality Not available.
Flu Activity Sporadic
METAR KGCC 130553Z AUTO 20005KT 10SM FEW075 13/09 A3028 RMK AO2 SLP214 T01330094 10283 20133 51008

More Conditions Fewer Conditions

10-Day Weather Forecast

Almanac

Astronomy

Jul. 13, 2014 Rise Set
Actual Time 5:30 AM MDT 8:46 PM MDT
Civil Twilight 4:54 AM MDT 9:21 PM MDT
Nautical Twilight 4:08 AM MDT 10:08 PM MDT
Astronomical Twilight 3:10 AM MDT 11:05 PM MDT
Moon 9:29 PM MDT 7:09 AM MDT
Length of Visible Light 16h 27m
Length of Day
15h 16m
Tomorrow will be 1m 32s shorter.
Full, 99% of the Moon is Illuminated
Today
Full
Jul 18
Last Quarter
Jul 26
New
Aug 3
First Quarter
Aug 10
Full

Today's Extremes

State Highs State Lows

Community

WunderPhotos

Upload Photos

1,733,116 photos uploaded!

Nearby

Snow Depth

Station Depth Elevation
Big Goose 0 in 7990 ft
Bone Springs Divide 0 in 9350 ft
Bald Mountain 0 in 9380 ft
Casper Mountain 1 in 7850 ft
Reno Hill 0 in 8500 ft

Earthquake Activity

City Distance Mag. Time & Date
No recent earthquake activity has been reported nearby.
Minimum magnitude displayed is 2.5.

Coastal Water Temperatures

Place Temperature
No Stations Reporting

Nearby Weather Stations

Station Location Temp. Dew Point Humidity Wind Precip. Elev Updated Type
RAWS ECHETA WY, Gillette, WY 68 °F 49 °F 51% South  at  2 mph 0.00 in / hr 4396 ft 11:51 PM MDT MADIS
(North Gillette), Gillette, WY 60.7 °F 49 °F 66% NNE  at  0.0 mph 0.00 in / hr 4610 ft 12:45 AM MDT Rapid Fire

Show More Stations Show Fewer Stations